sensor_id;sensor_type;location;lat;lon;timestamp;P1;durP1;ratioP1;P2;durP2;ratioP2
33367;SDS011;19724;51.114;13.906;2022-11-20T00:00:52;41.42;;;21.70;;
33367;SDS011;19724;51.114;13.906;2022-11-20T00:03:18;45.85;;;22.42;;
33367;SDS011;19724;51.114;13.906;2022-11-20T00:05:44;40.42;;;22.55;;
33367;SDS011;19724;51.114;13.906;2022-11-20T00:08:10;45.03;;;23.25;;
33367;SDS011;19724;51.114;13.906;2022-11-20T00:10:36;37.25;;;19.77;;
33367;SDS011;19724;51.114;13.906;2022-11-20T00:13:02;38.15;;;20.75;;
33367;SDS011;19724;51.114;13.906;2022-11-20T00:15:28;41.72;;;22.67;;
33367;SDS011;19724;51.114;13.906;2022-11-20T00:17:54;35.25;;;20.95;;
33367;SDS011;19724;51.114;13.906;2022-11-20T00:20:20;40.55;;;22.45;;
33367;SDS011;19724;51.114;13.906;2022-11-20T00:22:45;42.05;;;21.20;;
33367;SDS011;19724;51.114;13.906;2022-11-20T00:25:11;40.42;;;22.63;;
33367;SDS011;19724;51.114;13.906;2022-11-20T00:27:36;41.63;;;22.58;;
33367;SDS011;19724;51.114;13.906;2022-11-20T00:30:03;39.97;;;21.50;;
33367;SDS011;19724;51.114;13.906;2022-11-20T00:32:29;40.35;;;20.30;;
33367;SDS011;19724;51.114;13.906;2022-11-20T00:34:55;38.45;;;21.40;;
33367;SDS011;19724;51.114;13.906;2022-11-20T00:37:20;40.30;;;22.00;;
33367;SDS011;19724;51.114;13.906;2022-11-20T00:39:46;44.95;;;21.70;;
33367;SDS011;19724;51.114;13.906;2022-11-20T00:42:11;41.97;;;21.80;;
33367;SDS011;19724;51.114;13.906;2022-11-20T00:44:37;39.28;;;22.15;;
33367;SDS011;19724;51.114;13.906;2022-11-20T00:47:03;38.95;;;22.60;;
33367;SDS011;19724;51.114;13.906;2022-11-20T00:49:28;38.45;;;20.67;;
33367;SDS011;19724;51.114;13.906;2022-11-20T00:51:54;44.00;;;21.08;;
33367;SDS011;19724;51.114;13.906;2022-11-20T00:54:19;39.92;;;20.48;;
33367;SDS011;19724;51.114;13.906;2022-11-20T00:56:45;53.35;;;24.58;;
33367;SDS011;19724;51.114;13.906;2022-11-20T00:59:10;49.15;;;23.50;;
33367;SDS011;19724;51.114;13.906;2022-11-20T01:01:36;44.92;;;21.73;;
33367;SDS011;19724;51.114;13.906;2022-11-20T01:04:02;44.95;;;22.15;;
33367;SDS011;19724;51.114;13.906;2022-11-20T01:06:32;43.60;;;22.77;;
33367;SDS011;19724;51.114;13.906;2022-11-20T01:09:00;44.95;;;22.85;;
33367;SDS011;19724;51.114;13.906;2022-11-20T01:11:34;43.97;;;21.83;;
33367;SDS011;19724;51.114;13.906;2022-11-20T01:14:01;43.60;;;21.45;;
33367;SDS011;19724;51.114;13.906;2022-11-20T01:16:31;42.70;;;22.10;;
33367;SDS011;19724;51.114;13.906;2022-11-20T01:18:59;41.05;;;23.00;;
33367;SDS011;19724;51.114;13.906;2022-11-20T01:21:28;42.28;;;21.42;;
33367;SDS011;19724;51.114;13.906;2022-11-20T01:23:55;43.67;;;22.27;;
33367;SDS011;19724;51.114;13.906;2022-11-20T01:26:22;43.05;;;21.77;;
33367;SDS011;19724;51.114;13.906;2022-11-20T01:28:53;34.53;;;19.25;;
33367;SDS011;19724;51.114;13.906;2022-11-20T01:31:21;45.50;;;22.30;;
33367;SDS011;19724;51.114;13.906;2022-11-20T01:33:49;46.85;;;22.23;;
33367;SDS011;19724;51.114;13.906;2022-11-20T01:36:17;39.47;;;20.70;;
33367;SDS011;19724;51.114;13.906;2022-11-20T01:38:43;39.33;;;21.08;;
33367;SDS011;19724;51.114;13.906;2022-11-20T01:41:10;37.53;;;21.13;;
33367;SDS011;19724;51.114;13.906;2022-11-20T01:43:57;46.40;;;21.60;;
33367;SDS011;19724;51.114;13.906;2022-11-20T01:46:23;41.92;;;21.27;;
33367;SDS011;19724;51.114;13.906;2022-11-20T01:48:57;46.28;;;22.40;;
33367;SDS011;19724;51.114;13.906;2022-11-20T01:54:17;43.25;;;22.52;;
33367;SDS011;19724;51.114;13.906;2022-11-20T01:56:48;38.70;;;20.10;;
33367;SDS011;19724;51.114;13.906;2022-11-20T01:59:18;41.30;;;21.33;;
33367;SDS011;19724;51.114;13.906;2022-11-20T02:01:45;37.20;;;20.55;;
33367;SDS011;19724;51.114;13.906;2022-11-20T02:04:11;40.92;;;21.27;;
33367;SDS011;19724;51.114;13.906;2022-11-20T02:06:40;40.33;;;21.80;;
33367;SDS011;19724;51.114;13.906;2022-11-20T02:09:14;45.15;;;21.58;;
33367;SDS011;19724;51.114;13.906;2022-11-20T02:11:41;40.47;;;22.38;;
33367;SDS011;19724;51.114;13.906;2022-11-20T02:14:06;44.00;;;21.88;;
33367;SDS011;19724;51.114;13.906;2022-11-20T02:16:34;45.40;;;22.77;;
33367;SDS011;19724;51.114;13.906;2022-11-20T02:19:04;49.13;;;22.63;;
33367;SDS011;19724;51.114;13.906;2022-11-20T02:24:14;42.22;;;22.17;;
33367;SDS011;19724;51.114;13.906;2022-11-20T02:29:10;43.92;;;22.73;;
33367;SDS011;19724;51.114;13.906;2022-11-20T02:31:37;44.05;;;23.45;;
33367;SDS011;19724;51.114;13.906;2022-11-20T02:34:06;40.33;;;21.15;;
33367;SDS011;19724;51.114;13.906;2022-11-20T02:36:32;37.53;;;21.70;;
33367;SDS011;19724;51.114;13.906;2022-11-20T02:39:00;38.20;;;19.65;;
33367;SDS011;19724;51.114;13.906;2022-11-20T02:41:30;42.00;;;22.60;;
33367;SDS011;19724;51.114;13.906;2022-11-20T02:43:57;44.08;;;22.80;;
33367;SDS011;19724;51.114;13.906;2022-11-20T02:46:22;45.42;;;21.23;;
33367;SDS011;19724;51.114;13.906;2022-11-20T02:48:48;46.35;;;22.58;;
33367;SDS011;19724;51.114;13.906;2022-11-20T02:51:13;46.30;;;22.63;;
33367;SDS011;19724;51.114;13.906;2022-11-20T02:53:39;44.08;;;22.00;;
33367;SDS011;19724;51.114;13.906;2022-11-20T02:56:05;42.92;;;22.67;;
33367;SDS011;19724;51.114;13.906;2022-11-20T02:58:31;45.08;;;22.73;;
33367;SDS011;19724;51.114;13.906;2022-11-20T03:00:56;37.38;;;20.85;;
33367;SDS011;19724;51.114;13.906;2022-11-20T03:03:22;42.17;;;21.95;;
33367;SDS011;19724;51.114;13.906;2022-11-20T03:05:47;38.22;;;20.90;;
33367;SDS011;19724;51.114;13.906;2022-11-20T03:08:13;46.10;;;21.52;;
33367;SDS011;19724;51.114;13.906;2022-11-20T03:10:38;48.45;;;23.40;;
33367;SDS011;19724;51.114;13.906;2022-11-20T03:13:04;43.42;;;23.85;;
33367;SDS011;19724;51.114;13.906;2022-11-20T03:15:30;50.40;;;23.08;;
33367;SDS011;19724;51.114;13.906;2022-11-20T03:17:55;41.70;;;20.63;;
33367;SDS011;19724;51.114;13.906;2022-11-20T03:20:21;46.17;;;23.63;;
33367;SDS011;19724;51.114;13.906;2022-11-20T03:22:47;47.60;;;23.95;;
33367;SDS011;19724;51.114;13.906;2022-11-20T03:25:13;43.72;;;21.77;;
33367;SDS011;19724;51.114;13.906;2022-11-20T03:27:38;44.45;;;22.63;;
33367;SDS011;19724;51.114;13.906;2022-11-20T03:30:04;40.45;;;19.77;;
33367;SDS011;19724;51.114;13.906;2022-11-20T03:32:30;39.13;;;21.45;;
33367;SDS011;19724;51.114;13.906;2022-11-20T03:34:56;44.70;;;22.35;;
33367;SDS011;19724;51.114;13.906;2022-11-20T03:37:22;44.20;;;22.60;;
33367;SDS011;19724;51.114;13.906;2022-11-20T03:39:47;44.95;;;23.35;;
33367;SDS011;19724;51.114;13.906;2022-11-20T03:42:13;52.60;;;23.85;;
33367;SDS011;19724;51.114;13.906;2022-11-20T03:44:57;39.17;;;19.48;;
33367;SDS011;19724;51.114;13.906;2022-11-20T03:47:22;50.80;;;24.67;;
33367;SDS011;19724;51.114;13.906;2022-11-20T03:49:48;53.50;;;26.75;;
33367;SDS011;19724;51.114;13.906;2022-11-20T03:52:14;48.67;;;24.42;;
33367;SDS011;19724;51.114;13.906;2022-11-20T03:54:39;46.70;;;23.35;;
33367;SDS011;19724;51.114;13.906;2022-11-20T03:57:05;49.20;;;24.88;;
33367;SDS011;19724;51.114;13.906;2022-11-20T03:59:30;54.92;;;25.60;;
33367;SDS011;19724;51.114;13.906;2022-11-20T04:01:56;48.03;;;23.48;;
33367;SDS011;19724;51.114;13.906;2022-11-20T04:04:21;47.53;;;23.23;;
33367;SDS011;19724;51.114;13.906;2022-11-20T04:06:47;50.88;;;25.42;;
33367;SDS011;19724;51.114;13.906;2022-11-20T04:09:13;43.80;;;24.48;;
33367;SDS011;19724;51.114;13.906;2022-11-20T04:11:39;59.85;;;26.60;;
33367;SDS011;19724;51.114;13.906;2022-11-20T04:14:06;41.47;;;21.58;;
33367;SDS011;19724;51.114;13.906;2022-11-20T04:16:37;49.95;;;24.45;;
33367;SDS011;19724;51.114;13.906;2022-11-20T04:19:04;46.80;;;22.92;;
33367;SDS011;19724;51.114;13.906;2022-11-20T04:21:31;45.22;;;22.73;;
33367;SDS011;19724;51.114;13.906;2022-11-20T04:23:58;43.55;;;22.75;;
33367;SDS011;19724;51.114;13.906;2022-11-20T04:26:24;44.72;;;22.83;;
33367;SDS011;19724;51.114;13.906;2022-11-20T04:28:51;44.75;;;22.88;;
33367;SDS011;19724;51.114;13.906;2022-11-20T04:31:18;46.40;;;23.08;;
33367;SDS011;19724;51.114;13.906;2022-11-20T04:33:48;45.78;;;22.33;;
33367;SDS011;19724;51.114;13.906;2022-11-20T04:36:15;44.15;;;22.80;;
33367;SDS011;19724;51.114;13.906;2022-11-20T04:38:45;47.35;;;23.92;;
33367;SDS011;19724;51.114;13.906;2022-11-20T04:41:15;44.85;;;21.00;;
33367;SDS011;19724;51.114;13.906;2022-11-20T04:43:45;48.17;;;22.48;;
33367;SDS011;19724;51.114;13.906;2022-11-20T04:46:13;48.17;;;22.83;;
33367;SDS011;19724;51.114;13.906;2022-11-20T04:48:38;43.80;;;24.13;;
33367;SDS011;19724;51.114;13.906;2022-11-20T04:51:04;45.22;;;22.80;;
33367;SDS011;19724;51.114;13.906;2022-11-20T04:53:30;47.70;;;23.00;;
33367;SDS011;19724;51.114;13.906;2022-11-20T04:56:14;45.70;;;24.00;;
33367;SDS011;19724;51.114;13.906;2022-11-20T04:58:40;46.67;;;21.63;;
33367;SDS011;19724;51.114;13.906;2022-11-20T05:01:08;41.20;;;20.98;;
33367;SDS011;19724;51.114;13.906;2022-11-20T05:03:37;47.65;;;22.58;;
33367;SDS011;19724;51.114;13.906;2022-11-20T05:06:03;44.55;;;21.67;;
33367;SDS011;19724;51.114;13.906;2022-11-20T05:08:30;43.83;;;21.38;;
33367;SDS011;19724;51.114;13.906;2022-11-20T05:11:31;45.17;;;22.58;;
33367;SDS011;19724;51.114;13.906;2022-11-20T05:13:48;48.08;;;24.63;;
33367;SDS011;19724;51.114;13.906;2022-11-20T05:16:19;44.33;;;21.48;;
33367;SDS011;19724;51.114;13.906;2022-11-20T05:18:46;46.90;;;23.20;;
33367;SDS011;19724;51.114;13.906;2022-11-20T05:21:12;51.03;;;24.67;;
33367;SDS011;19724;51.114;13.906;2022-11-20T05:23:38;48.67;;;23.42;;
33367;SDS011;19724;51.114;13.906;2022-11-20T05:26:06;45.92;;;23.02;;
33367;SDS011;19724;51.114;13.906;2022-11-20T05:28:33;45.83;;;22.58;;
33367;SDS011;19724;51.114;13.906;2022-11-20T05:31:06;44.35;;;23.05;;
33367;SDS011;19724;51.114;13.906;2022-11-20T05:33:33;50.00;;;25.42;;
33367;SDS011;19724;51.114;13.906;2022-11-20T05:36:00;50.58;;;24.42;;
33367;SDS011;19724;51.114;13.906;2022-11-20T05:38:26;41.47;;;23.25;;
33367;SDS011;19724;51.114;13.906;2022-11-20T05:40:51;53.05;;;23.02;;
33367;SDS011;19724;51.114;13.906;2022-11-20T05:43:17;45.38;;;23.92;;
33367;SDS011;19724;51.114;13.906;2022-11-20T05:45:43;49.08;;;25.00;;
33367;SDS011;19724;51.114;13.906;2022-11-20T05:48:17;47.63;;;22.00;;
33367;SDS011;19724;51.114;13.906;2022-11-20T05:50:42;46.75;;;23.60;;
33367;SDS011;19724;51.114;13.906;2022-11-20T05:53:08;55.08;;;24.73;;
33367;SDS011;19724;51.114;13.906;2022-11-20T05:55:33;46.63;;;22.65;;
33367;SDS011;19724;51.114;13.906;2022-11-20T05:57:59;49.47;;;23.88;;
33367;SDS011;19724;51.114;13.906;2022-11-20T06:00:24;52.13;;;24.58;;
33367;SDS011;19724;51.114;13.906;2022-11-20T06:02:50;49.65;;;23.58;;
33367;SDS011;19724;51.114;13.906;2022-11-20T06:05:16;52.05;;;25.27;;
33367;SDS011;19724;51.114;13.906;2022-11-20T06:07:41;58.75;;;27.27;;
33367;SDS011;19724;51.114;13.906;2022-11-20T06:10:07;48.15;;;25.67;;
33367;SDS011;19724;51.114;13.906;2022-11-20T06:12:33;55.78;;;25.40;;
33367;SDS011;19724;51.114;13.906;2022-11-20T06:14:58;52.22;;;24.17;;
33367;SDS011;19724;51.114;13.906;2022-11-20T06:17:24;46.63;;;24.55;;
33367;SDS011;19724;51.114;13.906;2022-11-20T06:19:50;49.78;;;24.08;;
33367;SDS011;19724;51.114;13.906;2022-11-20T06:22:16;57.97;;;25.17;;
33367;SDS011;19724;51.114;13.906;2022-11-20T06:24:41;50.22;;;24.65;;
33367;SDS011;19724;51.114;13.906;2022-11-20T06:27:07;51.30;;;26.10;;
33367;SDS011;19724;51.114;13.906;2022-11-20T06:29:32;53.55;;;25.90;;
33367;SDS011;19724;51.114;13.906;2022-11-20T06:31:58;58.25;;;28.10;;
33367;SDS011;19724;51.114;13.906;2022-11-20T06:34:23;51.75;;;25.95;;
33367;SDS011;19724;51.114;13.906;2022-11-20T06:36:49;47.30;;;24.83;;
33367;SDS011;19724;51.114;13.906;2022-11-20T06:39:14;55.25;;;26.30;;
33367;SDS011;19724;51.114;13.906;2022-11-20T06:41:40;50.63;;;25.33;;
33367;SDS011;19724;51.114;13.906;2022-11-20T06:44:05;55.67;;;25.95;;
33367;SDS011;19724;51.114;13.906;2022-11-20T06:46:31;52.47;;;25.45;;
33367;SDS011;19724;51.114;13.906;2022-11-20T06:48:57;50.67;;;24.13;;
33367;SDS011;19724;51.114;13.906;2022-11-20T06:51:23;49.55;;;24.45;;
33367;SDS011;19724;51.114;13.906;2022-11-20T06:53:48;58.53;;;25.55;;
33367;SDS011;19724;51.114;13.906;2022-11-20T06:56:14;51.22;;;25.45;;
33367;SDS011;19724;51.114;13.906;2022-11-20T06:58:40;47.83;;;23.92;;
33367;SDS011;19724;51.114;13.906;2022-11-20T07:01:06;53.50;;;24.15;;
33367;SDS011;19724;51.114;13.906;2022-11-20T07:03:34;54.75;;;27.05;;
33367;SDS011;19724;51.114;13.906;2022-11-20T07:06:00;50.42;;;26.50;;
33367;SDS011;19724;51.114;13.906;2022-11-20T07:08:27;54.97;;;26.65;;
33367;SDS011;19724;51.114;13.906;2022-11-20T07:10:56;49.72;;;26.00;;
33367;SDS011;19724;51.114;13.906;2022-11-20T07:13:22;54.80;;;26.23;;
33367;SDS011;19724;51.114;13.906;2022-11-20T07:15:48;53.17;;;27.67;;
33367;SDS011;19724;51.114;13.906;2022-11-20T07:18:13;53.28;;;26.67;;
33367;SDS011;19724;51.114;13.906;2022-11-20T07:20:39;59.58;;;27.10;;
33367;SDS011;19724;51.114;13.906;2022-11-20T07:23:05;59.65;;;30.85;;
33367;SDS011;19724;51.114;13.906;2022-11-20T07:25:30;59.50;;;28.23;;
33367;SDS011;19724;51.114;13.906;2022-11-20T07:27:56;62.50;;;28.60;;
33367;SDS011;19724;51.114;13.906;2022-11-20T07:30:23;60.13;;;29.20;;
33367;SDS011;19724;51.114;13.906;2022-11-20T07:32:53;58.47;;;28.10;;
33367;SDS011;19724;51.114;13.906;2022-11-20T07:35:20;64.85;;;30.35;;
33367;SDS011;19724;51.114;13.906;2022-11-20T07:37:46;61.63;;;30.35;;
33367;SDS011;19724;51.114;13.906;2022-11-20T07:40:15;59.28;;;31.42;;
33367;SDS011;19724;51.114;13.906;2022-11-20T07:42:51;69.57;;;34.10;;
33367;SDS011;19724;51.114;13.906;2022-11-20T07:45:18;62.45;;;32.35;;
33367;SDS011;19724;51.114;13.906;2022-11-20T07:47:45;66.15;;;34.28;;
33367;SDS011;19724;51.114;13.906;2022-11-20T07:50:11;66.00;;;33.72;;
33367;SDS011;19724;51.114;13.906;2022-11-20T07:52:38;65.80;;;32.60;;
33367;SDS011;19724;51.114;13.906;2022-11-20T07:55:04;69.68;;;36.38;;
33367;SDS011;19724;51.114;13.906;2022-11-20T07:57:30;71.43;;;34.08;;
33367;SDS011;19724;51.114;13.906;2022-11-20T07:59:56;61.17;;;31.83;;
33367;SDS011;19724;51.114;13.906;2022-11-20T08:02:21;60.15;;;31.35;;
33367;SDS011;19724;51.114;13.906;2022-11-20T08:04:47;58.40;;;29.48;;
33367;SDS011;19724;51.114;13.906;2022-11-20T08:07:12;60.30;;;30.70;;
33367;SDS011;19724;51.114;13.906;2022-11-20T08:09:38;62.08;;;32.47;;
33367;SDS011;19724;51.114;13.906;2022-11-20T08:12:03;65.78;;;33.75;;
33367;SDS011;19724;51.114;13.906;2022-11-20T08:14:48;62.45;;;32.25;;
33367;SDS011;19724;51.114;13.906;2022-11-20T08:17:13;57.63;;;29.45;;
33367;SDS011;19724;51.114;13.906;2022-11-20T08:19:39;64.43;;;30.58;;
33367;SDS011;19724;51.114;13.906;2022-11-20T08:22:04;57.00;;;30.15;;
33367;SDS011;19724;51.114;13.906;2022-11-20T08:24:30;60.10;;;31.38;;
33367;SDS011;19724;51.114;13.906;2022-11-20T08:26:59;52.65;;;29.13;;
33367;SDS011;19724;51.114;13.906;2022-11-20T08:29:27;54.20;;;27.85;;
33367;SDS011;19724;51.114;13.906;2022-11-20T08:31:53;49.63;;;27.05;;
33367;SDS011;19724;51.114;13.906;2022-11-20T08:34:18;46.75;;;25.13;;
33367;SDS011;19724;51.114;13.906;2022-11-20T08:36:44;48.47;;;27.55;;
33367;SDS011;19724;51.114;13.906;2022-11-20T08:39:13;42.90;;;24.88;;
33367;SDS011;19724;51.114;13.906;2022-11-20T08:41:39;40.47;;;24.35;;
33367;SDS011;19724;51.114;13.906;2022-11-20T08:44:05;41.40;;;21.58;;
33367;SDS011;19724;51.114;13.906;2022-11-20T08:46:44;39.35;;;21.85;;
33367;SDS011;19724;51.114;13.906;2022-11-20T08:49:20;34.38;;;21.23;;
33367;SDS011;19724;51.114;13.906;2022-11-20T08:51:54;34.88;;;21.50;;
33367;SDS011;19724;51.114;13.906;2022-11-20T08:54:21;34.90;;;20.42;;
33367;SDS011;19724;51.114;13.906;2022-11-20T08:56:47;32.90;;;20.75;;
33367;SDS011;19724;51.114;13.906;2022-11-20T08:59:13;36.50;;;19.95;;
33367;SDS011;19724;51.114;13.906;2022-11-20T09:01:39;30.40;;;19.42;;
33367;SDS011;19724;51.114;13.906;2022-11-20T09:04:04;28.38;;;17.42;;
33367;SDS011;19724;51.114;13.906;2022-11-20T09:06:30;32.83;;;17.92;;
33367;SDS011;19724;51.114;13.906;2022-11-20T09:08:56;25.27;;;16.95;;
33367;SDS011;19724;51.114;13.906;2022-11-20T09:11:22;30.90;;;18.00;;
33367;SDS011;19724;51.114;13.906;2022-11-20T09:13:47;30.98;;;19.27;;
33367;SDS011;19724;51.114;13.906;2022-11-20T09:16:13;29.35;;;18.27;;
33367;SDS011;19724;51.114;13.906;2022-11-20T09:18:39;29.17;;;17.55;;
33367;SDS011;19724;51.114;13.906;2022-11-20T09:21:06;27.40;;;17.38;;
33367;SDS011;19724;51.114;13.906;2022-11-20T09:23:35;29.38;;;17.75;;
33367;SDS011;19724;51.114;13.906;2022-11-20T09:26:11;24.95;;;16.42;;
33367;SDS011;19724;51.114;13.906;2022-11-20T09:28:38;30.52;;;17.70;;
33367;SDS011;19724;51.114;13.906;2022-11-20T09:31:07;28.05;;;17.52;;
33367;SDS011;19724;51.114;13.906;2022-11-20T09:33:34;24.52;;;15.57;;
33367;SDS011;19724;51.114;13.906;2022-11-20T09:36:00;24.70;;;14.98;;
33367;SDS011;19724;51.114;13.906;2022-11-20T09:38:26;26.58;;;16.38;;
33367;SDS011;19724;51.114;13.906;2022-11-20T09:41:02;21.77;;;14.65;;
33367;SDS011;19724;51.114;13.906;2022-11-20T09:46:39;24.95;;;14.57;;
33367;SDS011;19724;51.114;13.906;2022-11-20T09:49:19;22.70;;;13.40;;
33367;SDS011;19724;51.114;13.906;2022-11-20T09:52:00;23.48;;;16.00;;
33367;SDS011;19724;51.114;13.906;2022-11-20T09:54:47;23.25;;;15.13;;
33367;SDS011;19724;51.114;13.906;2022-11-20T09:57:19;23.88;;;15.55;;
33367;SDS011;19724;51.114;13.906;2022-11-20T09:59:49;25.85;;;17.02;;
33367;SDS011;19724;51.114;13.906;2022-11-20T10:02:39;23.13;;;15.75;;
33367;SDS011;19724;51.114;13.906;2022-11-20T10:13:40;18.92;;;13.13;;
33367;SDS011;19724;51.114;13.906;2022-11-20T10:29:41;20.80;;;14.15;;
33367;SDS011;19724;51.114;13.906;2022-11-20T10:32:16;19.23;;;12.93;;
33367;SDS011;19724;51.114;13.906;2022-11-20T10:37:24;18.73;;;12.77;;
33367;SDS011;19724;51.114;13.906;2022-11-20T10:39:59;15.10;;;10.60;;
33367;SDS011;19724;51.114;13.906;2022-11-20T10:42:44;14.75;;;10.30;;
33367;SDS011;19724;51.114;13.906;2022-11-20T10:47:54;15.43;;;10.23;;
33367;SDS011;19724;51.114;13.906;2022-11-20T10:50:32;14.52;;;9.95;;
33367;SDS011;19724;51.114;13.906;2022-11-20T11:01:03;18.50;;;12.02;;
33367;SDS011;19724;51.114;13.906;2022-11-20T11:03:39;16.48;;;11.23;;
33367;SDS011;19724;51.114;13.906;2022-11-20T11:08:58;14.32;;;10.23;;
33367;SDS011;19724;51.114;13.906;2022-11-20T11:11:29;14.95;;;9.68;;
33367;SDS011;19724;51.114;13.906;2022-11-20T11:14:07;12.48;;;8.27;;
33367;SDS011;19724;51.114;13.906;2022-11-20T11:16:48;13.23;;;9.65;;
33367;SDS011;19724;51.114;13.906;2022-11-20T11:19:15;12.15;;;7.60;;
33367;SDS011;19724;51.114;13.906;2022-11-20T11:22:16;12.80;;;8.68;;
33367;SDS011;19724;51.114;13.906;2022-11-20T11:24:37;12.82;;;8.77;;
33367;SDS011;19724;51.114;13.906;2022-11-20T11:27:04;15.18;;;9.00;;
33367;SDS011;19724;51.114;13.906;2022-11-20T11:29:37;12.48;;;7.95;;
33367;SDS011;19724;51.114;13.906;2022-11-20T11:32:04;13.55;;;9.45;;
33367;SDS011;19724;51.114;13.906;2022-11-20T11:34:31;14.23;;;9.15;;
33367;SDS011;19724;51.114;13.906;2022-11-20T11:36:57;14.05;;;8.15;;
33367;SDS011;19724;51.114;13.906;2022-11-20T11:39:24;12.55;;;8.00;;
33367;SDS011;19724;51.114;13.906;2022-11-20T11:41:51;13.40;;;8.48;;
33367;SDS011;19724;51.114;13.906;2022-11-20T11:47:11;14.48;;;8.75;;
33367;SDS011;19724;51.114;13.906;2022-11-20T11:49:48;12.13;;;7.97;;
33367;SDS011;19724;51.114;13.906;2022-11-20T11:54:51;13.32;;;9.00;;
33367;SDS011;19724;51.114;13.906;2022-11-20T12:00:18;15.02;;;9.23;;
33367;SDS011;19724;51.114;13.906;2022-11-20T12:02:53;17.33;;;11.13;;
33367;SDS011;19724;51.114;13.906;2022-11-20T12:05:43;16.40;;;10.88;;
33367;SDS011;19724;51.114;13.906;2022-11-20T12:08:55;14.55;;;9.75;;
33367;SDS011;19724;51.114;13.906;2022-11-20T12:14:14;14.90;;;9.18;;
33367;SDS011;19724;51.114;13.906;2022-11-20T12:16:48;18.98;;;9.85;;
33367;SDS011;19724;51.114;13.906;2022-11-20T12:19:15;15.05;;;10.40;;
33367;SDS011;19724;51.114;13.906;2022-11-20T12:22:43;15.48;;;10.48;;
33367;SDS011;19724;51.114;13.906;2022-11-20T12:24:44;15.32;;;9.38;;
33367;SDS011;19724;51.114;13.906;2022-11-20T12:27:39;15.02;;;10.02;;
33367;SDS011;19724;51.114;13.906;2022-11-20T12:43:39;13.02;;;9.18;;
33367;SDS011;19724;51.114;13.906;2022-11-20T12:46:34;15.30;;;9.60;;
33367;SDS011;19724;51.114;13.906;2022-11-20T12:51:55;15.43;;;9.82;;
33367;SDS011;19724;51.114;13.906;2022-11-20T12:57:11;14.00;;;9.50;;
33367;SDS011;19724;51.114;13.906;2022-11-20T13:00:07;14.95;;;8.70;;
33367;SDS011;19724;51.114;13.906;2022-11-20T13:07:57;12.63;;;8.23;;
33367;SDS011;19724;51.114;13.906;2022-11-20T13:10:33;13.63;;;8.88;;
33367;SDS011;19724;51.114;13.906;2022-11-20T13:13:48;14.48;;;8.93;;
33367;SDS011;19724;51.114;13.906;2022-11-20T13:15:59;13.23;;;8.20;;
33367;SDS011;19724;51.114;13.906;2022-11-20T13:18:38;15.05;;;8.50;;
33367;SDS011;19724;51.114;13.906;2022-11-20T13:21:15;12.70;;;7.53;;
33367;SDS011;19724;51.114;13.906;2022-11-20T13:24:06;16.70;;;8.93;;
33367;SDS011;19724;51.114;13.906;2022-11-20T13:26:45;15.00;;;8.68;;
33367;SDS011;19724;51.114;13.906;2022-11-20T13:29:12;14.55;;;9.20;;
33367;SDS011;19724;51.114;13.906;2022-11-20T13:31:45;14.60;;;8.55;;
33367;SDS011;19724;51.114;13.906;2022-11-20T13:34:34;14.90;;;8.40;;
33367;SDS011;19724;51.114;13.906;2022-11-20T13:37:01;14.02;;;8.70;;
33367;SDS011;19724;51.114;13.906;2022-11-20T13:39:30;14.38;;;8.98;;
33367;SDS011;19724;51.114;13.906;2022-11-20T13:42:18;14.40;;;9.40;;
33367;SDS011;19724;51.114;13.906;2022-11-20T13:44:54;14.75;;;8.15;;
33367;SDS011;19724;51.114;13.906;2022-11-20T13:47:26;14.68;;;9.25;;
33367;SDS011;19724;51.114;13.906;2022-11-20T13:49:55;17.13;;;9.48;;
33367;SDS011;19724;51.114;13.906;2022-11-20T13:55:18;14.10;;;9.25;;
33367;SDS011;19724;51.114;13.906;2022-11-20T14:01:15;13.25;;;8.60;;
33367;SDS011;19724;51.114;13.906;2022-11-20T14:03:47;13.52;;;9.10;;
33367;SDS011;19724;51.114;13.906;2022-11-20T14:06:27;17.85;;;9.98;;
33367;SDS011;19724;51.114;13.906;2022-11-20T14:08:58;29.67;;;10.95;;
33367;SDS011;19724;51.114;13.906;2022-11-20T14:11:28;12.20;;;7.97;;
33367;SDS011;19724;51.114;13.906;2022-11-20T14:16:38;14.10;;;7.82;;
33367;SDS011;19724;51.114;13.906;2022-11-20T14:21:46;13.68;;;7.13;;
33367;SDS011;19724;51.114;13.906;2022-11-20T14:24:13;14.52;;;8.50;;
33367;SDS011;19724;51.114;13.906;2022-11-20T14:26:44;14.18;;;8.43;;
33367;SDS011;19724;51.114;13.906;2022-11-20T14:29:14;14.43;;;8.85;;
33367;SDS011;19724;51.114;13.906;2022-11-20T14:31:45;14.32;;;8.68;;
33367;SDS011;19724;51.114;13.906;2022-11-20T14:34:15;16.10;;;9.02;;
33367;SDS011;19724;51.114;13.906;2022-11-20T14:36:46;14.18;;;9.07;;
33367;SDS011;19724;51.114;13.906;2022-11-20T14:39:22;13.45;;;8.55;;
33367;SDS011;19724;51.114;13.906;2022-11-20T14:41:57;12.70;;;8.90;;
33367;SDS011;19724;51.114;13.906;2022-11-20T14:44:25;15.07;;;9.23;;
33367;SDS011;19724;51.114;13.906;2022-11-20T14:46:54;14.38;;;8.35;;
33367;SDS011;19724;51.114;13.906;2022-11-20T14:49:20;15.02;;;9.55;;
33367;SDS011;19724;51.114;13.906;2022-11-20T14:51:46;14.75;;;9.30;;
33367;SDS011;19724;51.114;13.906;2022-11-20T14:57:29;19.73;;;11.75;;
33367;SDS011;19724;51.114;13.906;2022-11-20T15:02:42;23.80;;;14.10;;
33367;SDS011;19724;51.114;13.906;2022-11-20T15:08:24;20.85;;;12.48;;
33367;SDS011;19724;51.114;13.906;2022-11-20T15:11:17;17.73;;;11.00;;
33367;SDS011;19724;51.114;13.906;2022-11-20T15:16:52;21.80;;;12.27;;
33367;SDS011;19724;51.114;13.906;2022-11-20T15:22:52;19.80;;;11.55;;
33367;SDS011;19724;51.114;13.906;2022-11-20T15:25:57;17.27;;;11.02;;
33367;SDS011;19724;51.114;13.906;2022-11-20T15:28:40;25.65;;;14.77;;
33367;SDS011;19724;51.114;13.906;2022-11-20T15:31:18;24.50;;;13.98;;
33367;SDS011;19724;51.114;13.906;2022-11-20T15:33:56;18.70;;;11.13;;
33367;SDS011;19724;51.114;13.906;2022-11-20T15:39:53;15.98;;;9.90;;
33367;SDS011;19724;51.114;13.906;2022-11-20T15:42:19;19.35;;;11.25;;
33367;SDS011;19724;51.114;13.906;2022-11-20T15:44:48;17.70;;;11.40;;
33367;SDS011;19724;51.114;13.906;2022-11-20T15:47:37;19.65;;;12.32;;
33367;SDS011;19724;51.114;13.906;2022-11-20T15:50:09;18.60;;;11.10;;
33367;SDS011;19724;51.114;13.906;2022-11-20T15:52:42;17.65;;;10.98;;
33367;SDS011;19724;51.114;13.906;2022-11-20T15:55:09;20.33;;;12.82;;
33367;SDS011;19724;51.114;13.906;2022-11-20T15:57:35;21.73;;;14.05;;
33367;SDS011;19724;51.114;13.906;2022-11-20T16:00:01;26.98;;;13.10;;
33367;SDS011;19724;51.114;13.906;2022-11-20T16:02:27;23.60;;;14.00;;
33367;SDS011;19724;51.114;13.906;2022-11-20T16:04:52;21.52;;;11.20;;
33367;SDS011;19724;51.114;13.906;2022-11-20T16:07:18;25.58;;;13.82;;
33367;SDS011;19724;51.114;13.906;2022-11-20T16:09:43;22.75;;;12.50;;
33367;SDS011;19724;51.114;13.906;2022-11-20T16:12:09;21.75;;;11.15;;
33367;SDS011;19724;51.114;13.906;2022-11-20T16:14:55;19.52;;;11.93;;
33367;SDS011;19724;51.114;13.906;2022-11-20T16:17:39;16.27;;;8.80;;
33367;SDS011;19724;51.114;13.906;2022-11-20T16:20:10;22.98;;;12.73;;